This is the latest recevied weather packets stored in our database for station/object N2WH. If no packets are shown the sender has not sent any weather packets the latest 10 day(s).
| Time | Temp. | Humidity | Pressure | Rain* | Wind** | Luminosity | Snow |
|---|---|---|---|---|---|---|---|
| 1777909458 | 20° C | 38% | 1013.2 hPa | 0 mm | - | 828 W/m² | - |
| 1777909156 | 20.56° C | 36% | 1013.3 hPa | 0 mm | - | 790 W/m² | - |
| 1777908854 | 20° C | 37% | 1013.4 hPa | 0 mm | - | 818 W/m² | - |
| 1777908550 | 19.44° C | 38% | 1013.2 hPa | 0 mm | - | 821 W/m² | - |
| 1777908247 | 18.89° C | 38% | 1013.4 hPa | 0 mm | - | 832 W/m² | - |
| 1777907944 | 18.89° C | 39% | 1013.5 hPa | 0 mm | - | 728 W/m² | - |
| 1777907639 | 18.89° C | 39% | 1013.4 hPa | 0 mm | - | 729 W/m² | - |
| 1777907334 | 19.44° C | 40% | 1013.7 hPa | 0 mm | - | 688 W/m² | - |
| 1777907031 | 18.89° C | 41% | 1013.3 hPa | 0 mm | - | 787 W/m² | - |
| 1777906729 | 18.89° C | 40% | 1013.7 hPa | 0 mm | - | 763 W/m² | - |
| 1777906425 | 18.33° C | 42% | 1013.9 hPa | 0 mm | - | 760 W/m² | - |
| 1777906122 | 18.33° C | 42% | 1013.6 hPa | 0 mm | - | 780 W/m² | - |
| 1777905818 | 18.33° C | 40% | 1013.8 hPa | 0 mm | - | 747 W/m² | - |
| 1777905516 | 17.78° C | 39% | 1013.8 hPa | 0 mm | - | 725 W/m² | - |
| 1777905212 | 18.33° C | 40% | 1013.6 hPa | 0 mm | - | 727 W/m² | - |
| 1777904910 | 17.78° C | 40% | 1013.9 hPa | 0 mm | - | 690 W/m² | - |
| 1777904607 | 17.78° C | 40% | 1013.8 hPa | 0 mm | - | 708 W/m² | - |
| 1777904304 | 18.33° C | 41% | 1013.9 hPa | 0 mm | - | 687 W/m² | - |
| 1777904001 | 17.78° C | 41% | 1013.7 hPa | 0 mm | - | 657 W/m² | - |
| 1777903698 | 17.22° C | 42% | 1013.9 hPa | 0 mm | - | 632 W/m² | - |
| 1777903394 | 17.22° C | 42% | 1013.9 hPa | 0 mm | - | 619 W/m² | - |
| 1777903090 | 16.67° C | 42% | 1013.9 hPa | 0 mm | - | 600 W/m² | - |
| 1777902787 | 16.67° C | 43% | 1014 hPa | 0 mm | - | 542 W/m² | - |
| 1777902485 | 16.67° C | 40% | 1014 hPa | 0 mm | - | 539 W/m² | - |
| 1777902181 | 16.67° C | 42% | 1014.1 hPa | 0 mm | - | 537 W/m² | - |
* Rain latest hour (hover to see other rain measurements)
** Current wind speed in m/s (hover to see current wind gust speed)